Time;durP1;ratioP1;P1;durP2;ratioP2;P2;SDS_P1;SDS_P2;PMS_P1;PMS_P2;Temp;Humidity;BMP_temperature;BMP_pressure;BME280_temperature;BME280_humidity;BME280_pressure;Samples;Min_cycle;Max_cycle;Signal;HPM_P1;HPM_P2
2023/11/02 00:00:46;;;;;;;9.65;1.00;;;10.50;99.90;;;;;;4970352;28;20283;-82
2023/11/02 00:03:13;;;;;;;3.47;0.60;;;10.50;99.90;;;;;;4968065;28;20046;-83
2023/11/02 00:05:54;;;;;;;1.70;0.40;;;10.50;99.90;;;;;;4997830;28;20034;-82
2023/11/02 00:08:24;;;;;;;2.15;0.75;;;10.50;99.90;;;;;;4986634;28;20562;-83
2023/11/02 00:10:49;;;;;;;2.63;0.63;;;10.40;99.90;;;;;;5000033;28;20089;-83
2023/11/02 00:13:22;;;;;;;2.55;0.80;;;10.50;99.90;;;;;;4999743;28;20046;-82
2023/11/02 00:15:48;;;;;;;1.67;0.45;;;10.50;99.90;;;;;;4983240;28;20069;-83
2023/11/02 00:18:14;;;;;;;1.50;0.55;;;10.30;99.90;;;;;;4986525;28;20550;-82
2023/11/02 00:20:39;;;;;;;1.05;0.43;;;10.30;99.90;;;;;;4985366;28;20085;-82
2023/11/02 00:23:05;;;;;;;1.52;0.57;;;10.40;99.90;;;;;;4969678;28;20034;-81
2023/11/02 00:25:42;;;;;;;2.72;1.25;;;10.40;99.90;;;;;;4986049;28;20034;-82
2023/11/02 00:28:08;;;;;;;3.72;0.50;;;10.30;99.90;;;;;;4997878;28;20127;-82
2023/11/02 00:30:36;;;;;;;3.90;0.93;;;10.40;99.90;;;;;;5006966;28;20120;-83
2023/11/02 00:33:01;;;;;;;2.40;0.80;;;10.40;99.90;;;;;;4993311;28;20041;-82
2023/11/02 00:35:27;;;;;;;1.30;0.47;;;10.30;99.90;;;;;;4986988;28;20034;-82
2023/11/02 00:37:53;;;;;;;1.40;0.52;;;10.30;99.90;;;;;;4969035;28;20077;-82
2023/11/02 00:40:19;;;;;;;4.25;0.88;;;10.20;99.90;;;;;;4985433;28;20090;-82
2023/11/02 00:42:46;;;;;;;3.88;0.80;;;10.30;99.90;;;;;;4998868;28;20495;-82
2023/11/02 00:45:12;;;;;;;2.78;0.80;;;10.20;99.90;;;;;;4967706;28;20065;-82
2023/11/02 00:47:37;;;;;;;1.20;0.38;;;10.30;99.90;;;;;;4997145;28;20034;-81
2023/11/02 00:50:03;;;;;;;2.30;0.60;;;10.20;99.90;;;;;;4982401;28;20667;-81
2023/11/02 00:52:29;;;;;;;2.35;0.60;;;10.20;99.90;;;;;;4984745;28;20532;-81
2023/11/02 00:54:57;;;;;;;1.67;0.40;;;10.20;99.90;;;;;;4970830;28;20473;-81
2023/11/02 00:57:28;;;;;;;3.45;0.70;;;10.30;99.90;;;;;;5015159;28;20038;-81
2023/11/02 00:59:55;;;;;;;3.67;0.90;;;10.40;99.90;;;;;;4996671;28;20030;-81
2023/11/02 01:02:21;;;;;;;5.05;0.70;;;10.30;99.90;;;;;;4986191;28;20042;-82
2023/11/02 01:04:52;;;;;;;1.90;0.75;;;10.40;99.90;;;;;;4981697;28;20493;-81
2023/11/02 01:07:18;;;;;;;2.38;0.60;;;10.40;99.90;;;;;;4967451;28;20783;-81
2023/11/02 01:09:56;;;;;;;4.93;0.52;;;10.50;99.90;;;;;;4997617;28;20030;-81
2023/11/02 01:12:35;;;;;;;1.73;0.40;;;10.50;99.90;;;;;;4979973;28;20038;-81
2023/11/02 01:15:02;;;;;;;2.88;0.70;;;10.40;99.90;;;;;;5015648;28;20567;-81
2023/11/02 01:17:33;;;;;;;1.10;0.50;;;10.50;99.90;;;;;;4968226;28;20034;-80
2023/11/02 01:20:32;;;;;;;4.65;0.57;;;10.50;99.90;;;;;;4984286;28;20050;-81
2023/11/02 01:23:08;;;;;;;3.28;0.70;;;10.40;99.90;;;;;;4994770;28;21538;-80
2023/11/02 01:25:42;;;;;;;3.38;0.60;;;10.50;99.90;;;;;;4982055;28;20066;-81
2023/11/02 01:28:08;;;;;;;1.10;0.40;;;10.60;99.90;;;;;;4979597;28;20031;-81
2023/11/02 01:30:36;;;;;;;2.88;0.77;;;10.70;99.90;;;;;;4984700;28;20052;-81
2023/11/02 01:33:25;;;;;;;3.78;0.68;;;10.70;99.90;;;;;;4983132;28;20038;-82
2023/11/02 01:35:51;;;;;;;0.30;0.25;;;10.70;99.90;;;;;;4959418;28;20085;-82
2023/11/02 01:38:16;;;;;;;1.38;0.50;;;10.80;99.90;;;;;;4996407;28;20554;-81
2023/11/02 01:40:52;;;;;;;2.85;0.68;;;10.70;99.90;;;;;;4983280;28;20367;-80
2023/11/02 01:43:29;;;;;;;2.47;0.68;;;10.70;99.90;;;;;;4996293;28;20041;-81
2023/11/02 01:45:56;;;;;;;3.67;0.70;;;10.60;99.90;;;;;;4995079;28;20204;-81
2023/11/02 01:48:22;;;;;;;3.85;0.63;;;10.70;99.90;;;;;;4983120;28;20388;-81
2023/11/02 01:51:03;;;;;;;3.78;0.45;;;10.70;99.90;;;;;;4983800;28;20041;-82
2023/11/02 01:53:41;;;;;;;0.95;0.50;;;10.70;99.90;;;;;;5000533;28;20162;-82
2023/11/02 01:56:41;;;;;;;4.55;1.10;;;10.70;99.90;;;;;;4997380;28;20062;-82
2023/11/02 01:59:11;;;;;;;3.67;0.60;;;10.80;99.90;;;;;;4984515;28;20161;-82
2023/11/02 02:02:18;;;;;;;5.35;0.75;;;10.70;99.90;;;;;;4967707;28;20507;-82
2023/11/02 02:04:47;;;;;;;4.60;0.80;;;10.70;99.90;;;;;;4972640;28;20145;-82
2023/11/02 02:07:32;;;;;;;3.13;0.90;;;10.70;99.90;;;;;;4967618;28;20507;-82
2023/11/02 02:10:07;;;;;;;1.95;0.60;;;10.70;99.90;;;;;;5012529;28;20026;-82
2023/11/02 02:12:36;;;;;;;2.28;0.75;;;10.70;99.90;;;;;;4983252;28;20494;-81
2023/11/02 02:15:06;;;;;;;5.55;0.65;;;10.70;99.90;;;;;;4985093;28;20550;-82
2023/11/02 02:17:41;;;;;;;1.80;0.63;;;10.70;99.90;;;;;;4983418;28;20037;-83
2023/11/02 02:20:16;;;;;;;2.80;1.00;;;10.70;99.90;;;;;;5010789;28;20022;-82
2023/11/02 02:22:48;;;;;;;13.18;0.70;;;10.80;99.90;;;;;;4993842;28;20570;-82
2023/11/02 02:25:23;;;;;;;2.90;0.70;;;10.80;99.90;;;;;;4983489;28;20130;-81
2023/11/02 02:28:06;;;;;;;5.20;1.25;;;10.70;99.90;;;;;;4980947;28;20461;-81
2023/11/02 02:31:21;;;;;;;4.28;0.82;;;10.70;99.90;;;;;;4967681;28;21513;-82
2023/11/02 02:34:20;;;;;;;3.05;0.35;;;10.60;99.90;;;;;;4966705;28;20026;-81
2023/11/02 02:37:07;;;;;;;3.75;1.00;;;10.80;99.90;;;;;;5012985;28;20039;-81
2023/11/02 02:39:36;;;;;;;4.47;0.73;;;10.70;99.90;;;;;;4969080;28;20173;-82
2023/11/02 02:42:03;;;;;;;1.23;0.63;;;10.80;99.90;;;;;;4992939;28;20096;-81
2023/11/02 02:44:29;;;;;;;5.07;0.90;;;10.70;99.90;;;;;;4979629;28;20106;-81
2023/11/02 02:46:54;;;;;;;3.85;0.70;;;10.70;99.90;;;;;;4986448;28;20049;-82
2023/11/02 02:49:21;;;;;;;4.35;0.95;;;10.80;99.90;;;;;;5000185;28;20085;-81
2023/11/02 02:51:47;;;;;;;2.05;0.80;;;10.80;99.90;;;;;;4997819;28;20061;-80
2023/11/02 02:54:13;;;;;;;5.55;1.38;;;10.80;99.90;;;;;;4982454;28;20043;-81
2023/11/02 02:56:40;;;;;;;2.55;0.85;;;10.80;99.90;;;;;;4967184;28;20022;-81
2023/11/02 02:59:10;;;;;;;2.63;0.80;;;10.80;99.90;;;;;;4968012;28;20121;-82
2023/11/02 03:01:38;;;;;;;3.17;0.70;;;10.80;99.90;;;;;;4997646;28;20321;-81
2023/11/02 03:04:05;;;;;;;5.80;0.80;;;10.80;99.90;;;;;;4982451;28;20080;-81
2023/11/02 03:06:30;;;;;;;3.33;0.98;;;10.80;99.90;;;;;;5009982;28;20129;-82
2023/11/02 03:08:56;;;;;;;6.95;0.80;;;10.70;99.90;;;;;;4964520;28;20122;-81
2023/11/02 03:11:22;;;;;;;3.35;0.50;;;10.80;99.90;;;;;;4982103;28;20512;-81
2023/11/02 03:13:49;;;;;;;6.00;1.17;;;10.80;99.90;;;;;;4963666;28;20114;-81
2023/11/02 03:16:15;;;;;;;1.67;0.57;;;10.80;99.90;;;;;;4982540;28;20069;-80
2023/11/02 03:18:41;;;;;;;4.55;1.13;;;10.80;99.90;;;;;;4996475;28;20050;-81
2023/11/02 03:21:06;;;;;;;2.20;0.50;;;10.80;99.90;;;;;;4978823;28;20443;-81
2023/11/02 03:23:43;;;;;;;1.58;1.13;;;10.80;99.90;;;;;;5011713;28;20030;-80
2023/11/02 03:26:31;;;;;;;5.07;1.05;;;10.80;99.90;;;;;;4995483;28;20075;-80
2023/11/02 03:29:22;;;;;;;2.47;1.00;;;10.80;99.90;;;;;;4972970;28;20594;-81
2023/11/02 03:31:52;;;;;;;2.63;0.90;;;10.90;99.90;;;;;;4993909;28;20086;-81
2023/11/02 03:34:35;;;;;;;3.17;0.90;;;10.90;99.90;;;;;;4970378;28;20057;-81
2023/11/02 03:37:04;;;;;;;2.88;0.70;;;10.90;99.90;;;;;;4969809;28;20121;-81
2023/11/02 03:39:36;;;;;;;5.15;0.93;;;10.90;99.90;;;;;;4987218;28;20029;-81
2023/11/02 03:42:25;;;;;;;3.03;1.17;;;10.90;99.90;;;;;;5002362;28;20036;-82
2023/11/02 03:45:26;;;;;;;2.03;0.80;;;10.90;99.90;;;;;;5000636;28;20034;-81
2023/11/02 03:48:10;;;;;;;3.88;0.90;;;10.80;99.90;;;;;;4985970;28;20030;-81
2023/11/02 03:51:17;;;;;;;4.78;1.00;;;10.90;99.90;;;;;;4987291;28;20391;-81
2023/11/02 03:53:52;;;;;;;1.80;0.73;;;10.80;99.90;;;;;;4955626;28;20470;-80
2023/11/02 03:56:34;;;;;;;1.40;0.47;;;10.80;99.90;;;;;;4982758;28;20121;-81
2023/11/02 03:59:12;;;;;;;2.40;0.90;;;10.80;99.90;;;;;;4985361;28;20116;-81
2023/11/02 04:02:02;;;;;;;3.65;1.10;;;10.80;99.90;;;;;;5015421;28;20397;-81
2023/11/02 04:04:40;;;;;;;2.97;0.95;;;10.70;99.90;;;;;;4999599;28;20462;-81
2023/11/02 04:07:30;;;;;;;1.63;0.60;;;10.80;99.90;;;;;;5014165;28;20026;-81
2023/11/02 04:10:06;;;;;;;4.75;0.57;;;10.80;99.90;;;;;;5003268;28;20427;-82
2023/11/02 04:12:33;;;;;;;;;;;10.70;99.90;;;;;;5017916;28;20030;-81
2023/11/02 04:15:01;;;;;;;2.50;0.40;;;10.70;99.90;;;;;;4969549;28;20425;-81
2023/11/02 04:17:28;;;;;;;2.90;0.80;;;10.80;99.90;;;;;;4968764;28;20070;-81
2023/11/02 04:19:54;;;;;;;2.83;0.52;;;10.70;99.90;;;;;;4985292;28;20121;-81
2023/11/02 04:22:19;;;;;;;2.50;0.63;;;10.80;99.90;;;;;;4969707;28;20459;-82
2023/11/02 04:24:45;;;;;;;5.32;0.68;;;10.70;99.90;;;;;;4984409;28;20140;-81
2023/11/02 04:27:11;;;;;;;2.00;0.63;;;10.80;99.90;;;;;;4999566;28;20035;-82
2023/11/02 04:29:36;;;;;;;5.22;0.90;;;10.80;99.90;;;;;;4979667;28;20030;-82
2023/11/02 04:32:02;;;;;;;0.30;0.30;;;10.80;99.90;;;;;;4985782;28;20390;-81
2023/11/02 04:34:27;;;;;;;2.13;0.65;;;10.80;99.90;;;;;;4985068;28;20057;-80
2023/11/02 04:36:53;;;;;;;7.15;0.80;;;10.80;99.90;;;;;;4985097;28;20319;-80
2023/11/02 04:39:21;;;;;;;2.00;0.40;;;10.80;99.90;;;;;;4969636;28;20037;-81
2023/11/02 04:41:47;;;;;;;3.10;0.50;;;10.80;99.90;;;;;;4980011;28;20085;-81
2023/11/02 04:44:12;;;;;;;3.00;0.60;;;10.80;99.90;;;;;;4984281;28;20455;-81
2023/11/02 04:46:38;;;;;;;1.55;0.47;;;10.70;99.90;;;;;;5001124;28;20406;-83
2023/11/02 04:49:03;;;;;;;3.75;1.00;;;10.70;99.90;;;;;;4968319;28;20401;-81
2023/11/02 04:51:29;;;;;;;2.67;0.70;;;10.70;99.90;;;;;;4995489;28;20034;-81
2023/11/02 04:53:56;;;;;;;2.15;0.80;;;10.80;99.90;;;;;;4982341;28;20399;-81
2023/11/02 04:56:22;;;;;;;4.22;0.47;;;10.80;99.90;;;;;;4967768;28;20343;-81
2023/11/02 04:58:47;;;;;;;3.00;0.55;;;10.80;99.90;;;;;;4981337;28;20038;-81
2023/11/02 05:01:13;;;;;;;2.83;0.50;;;10.80;99.90;;;;;;4983512;28;20541;-82
2023/11/02 05:03:38;;;;;;;4.13;0.57;;;10.80;99.90;;;;;;4966955;28;20050;-81
2023/11/02 05:06:04;;;;;;;2.20;0.70;;;10.80;99.90;;;;;;5002869;28;20034;-82
2023/11/02 05:08:30;;;;;;;2.92;0.75;;;10.90;99.90;;;;;;4983078;28;20035;-82
2023/11/02 05:10:55;;;;;;;2.20;0.55;;;10.90;99.90;;;;;;4967668;28;20044;-82
2023/11/02 05:13:21;;;;;;;3.40;0.60;;;10.90;99.90;;;;;;4982754;28;20129;-82
2023/11/02 05:15:46;;;;;;;2.63;0.45;;;10.90;99.90;;;;;;4981901;28;20089;-81
2023/11/02 05:18:12;;;;;;;2.60;0.60;;;10.90;99.90;;;;;;4992639;28;20046;-83
2023/11/02 05:20:38;;;;;;;3.40;0.50;;;11.10;99.90;;;;;;4948691;28;20577;-83
2023/11/02 05:23:05;;;;;;;3.60;0.47;;;10.40;99.90;;;;;;4976925;28;20040;-82
2023/11/02 05:25:31;;;;;;;3.25;0.63;;;11.00;99.90;;;;;;4982279;28;20525;-81
2023/11/02 05:27:56;;;;;;;1.23;0.50;;;10.90;99.90;;;;;;4965618;28;20038;-83
2023/11/02 05:30:22;;;;;;;2.63;0.75;;;10.90;99.90;;;;;;4983215;28;20089;-83
2023/11/02 05:32:47;;;;;;;1.40;0.50;;;10.90;99.90;;;;;;4967068;28;20031;-82
2023/11/02 05:35:16;;;;;;;11.77;1.27;;;11.20;99.90;;;;;;5013595;28;20030;-80
2023/11/02 05:37:41;;;;;;;1.88;0.68;;;11.00;99.90;;;;;;4984506;28;20456;-82
2023/11/02 05:40:08;;;;;;;1.75;0.40;;;11.00;99.90;;;;;;4982953;28;20046;-81
2023/11/02 05:42:34;;;;;;;1.85;0.80;;;11.00;99.90;;;;;;4950349;28;20064;-82
2023/11/02 05:45:02;;;;;;;5.13;0.85;;;11.10;99.90;;;;;;4992036;28;20046;-82
2023/11/02 05:47:27;;;;;;;4.00;0.40;;;11.10;99.90;;;;;;4983194;28;20573;-81
2023/11/02 05:49:53;;;;;;;0.85;0.40;;;11.10;99.90;;;;;;4981659;28;20034;-81
2023/11/02 05:52:18;;;;;;;1.05;0.47;;;11.10;99.90;;;;;;5011380;28;20026;-81
2023/11/02 05:54:44;;;;;;;2.97;0.60;;;11.00;99.90;;;;;;4994434;28;20031;-81
2023/11/02 05:57:11;;;;;;;8.23;0.77;;;11.00;99.90;;;;;;4983857;28;20552;-82
2023/11/02 05:59:38;;;;;;;0.95;0.40;;;11.00;99.90;;;;;;4981999;28;20027;-81
2023/11/02 06:02:03;;;;;;;1.00;0.30;;;11.00;99.90;;;;;;4966007;28;20045;-80
2023/11/02 06:04:29;;;;;;;1.42;0.50;;;11.00;99.90;;;;;;4966171;28;20019;-80
2023/11/02 06:06:54;;;;;;;2.10;0.40;;;11.00;99.90;;;;;;5013705;28;20042;-80
2023/11/02 06:09:20;;;;;;;3.85;0.73;;;11.00;99.90;;;;;;4995489;28;20019;-80
2023/11/02 06:11:45;;;;;;;1.60;0.65;;;11.00;99.90;;;;;;4996306;28;20034;-80
2023/11/02 06:14:11;;;;;;;1.63;0.38;;;11.00;99.90;;;;;;4991474;28;20031;-80
2023/11/02 06:16:36;;;;;;;1.30;0.25;;;11.00;99.90;;;;;;4982486;28;20038;-79
2023/11/02 06:19:02;;;;;;;4.60;0.90;;;11.00;99.90;;;;;;4980652;28;20043;-80
2023/11/02 06:21:28;;;;;;;3.97;0.38;;;10.90;99.90;;;;;;4981054;28;20128;-81
2023/11/02 06:23:53;;;;;;;0.80;0.50;;;11.00;99.90;;;;;;4977343;28;20486;-80
2023/11/02 06:26:19;;;;;;;3.55;0.52;;;11.00;99.90;;;;;;4978468;28;20451;-80
2023/11/02 06:28:48;;;;;;;5.63;0.63;;;11.10;99.90;;;;;;5012064;28;20372;-80
2023/11/02 06:31:13;;;;;;;1.15;0.50;;;11.10;99.90;;;;;;4985815;28;20483;-80
2023/11/02 06:33:39;;;;;;;6.65;0.98;;;11.10;99.90;;;;;;4965495;28;20041;-79
2023/11/02 06:36:05;;;;;;;1.33;0.45;;;11.10;99.90;;;;;;4980823;28;20027;-80
2023/11/02 06:38:31;;;;;;;5.63;0.35;;;11.20;99.90;;;;;;4982094;28;20122;-80
2023/11/02 06:40:56;;;;;;;0.98;0.38;;;11.20;99.90;;;;;;4965245;28;20039;-80
2023/11/02 06:43:22;;;;;;;3.90;0.45;;;11.20;99.90;;;;;;4983200;28;20100;-80
2023/11/02 06:45:48;;;;;;;1.45;0.28;;;11.20;99.90;;;;;;4965516;28;20139;-80
2023/11/02 06:48:13;;;;;;;1.13;0.55;;;11.30;99.90;;;;;;5000105;28;20035;-79
2023/11/02 06:50:39;;;;;;;2.72;0.40;;;11.30;99.90;;;;;;4981833;28;20030;-80
2023/11/02 06:53:04;;;;;;;1.55;0.50;;;11.30;99.90;;;;;;4980174;28;20063;-80
2023/11/02 06:55:30;;;;;;;3.58;0.43;;;11.30;99.90;;;;;;4981805;28;20062;-80
2023/11/02 06:57:55;;;;;;;3.28;0.57;;;11.40;99.90;;;;;;4981203;28;20419;-80
2023/11/02 07:00:22;;;;;;;0.88;0.30;;;11.40;99.90;;;;;;4983307;28;20066;-79
2023/11/02 07:02:48;;;;;;;1.65;1.13;;;11.40;99.90;;;;;;4980259;28;20501;-80
2023/11/02 07:05:14;;;;;;;0.40;0.22;;;11.50;99.90;;;;;;4977139;28;20034;-81
2023/11/02 07:07:40;;;;;;;1.42;0.65;;;11.50;99.90;;;;;;4969964;28;20129;-80
2023/11/02 07:10:08;;;;;;;2.72;0.30;;;11.50;99.90;;;;;;4967883;28;20031;-81
2023/11/02 07:12:34;;;;;;;1.77;0.40;;;11.60;99.90;;;;;;4984949;28;20117;-81
2023/11/02 07:14:59;;;;;;;3.95;0.50;;;11.70;99.90;;;;;;4987347;28;20113;-81
2023/11/02 07:17:26;;;;;;;0.88;0.20;;;11.60;99.90;;;;;;4985971;28;20360;-82
2023/11/02 07:19:53;;;;;;;2.95;0.45;;;11.60;99.90;;;;;;4986146;28;20055;-81
2023/11/02 07:22:19;;;;;;;5.07;0.60;;;11.60;99.90;;;;;;4957058;28;20027;-80
2023/11/02 07:24:45;;;;;;;0.93;0.20;;;11.60;99.90;;;;;;4985036;28;20041;-81
2023/11/02 07:27:11;;;;;;;2.65;0.40;;;11.60;99.90;;;;;;4968512;28;20634;-82
2023/11/02 07:29:37;;;;;;;5.72;0.60;;;11.50;99.90;;;;;;4997807;28;20106;-82
2023/11/02 07:32:04;;;;;;;0.40;0.40;;;11.50;99.90;;;;;;4970958;28;20046;-83
2023/11/02 07:34:29;;;;;;;1.05;0.57;;;11.40;99.90;;;;;;5003444;28;20089;-83
2023/11/02 07:36:56;;;;;;;1.75;0.60;;;11.40;99.90;;;;;;4989444;28;20057;-84
2023/11/02 07:39:22;;;;;;;1.88;0.30;;;11.30;99.90;;;;;;5009938;28;20030;-83
2023/11/02 07:41:47;;;;;;;0.60;0.30;;;11.30;99.90;;;;;;4989390;28;20041;-82
2023/11/02 07:44:13;;;;;;;4.03;0.60;;;11.20;99.90;;;;;;4992251;28;20538;-83
2023/11/02 07:46:39;;;;;;;0.65;0.30;;;11.10;99.90;;;;;;4987407;28;20495;-82
2023/11/02 07:49:05;;;;;;;0.30;0.30;;;11.20;99.90;;;;;;4991433;28;20094;-82
2023/11/02 07:51:30;;;;;;;2.10;0.28;;;11.10;99.90;;;;;;4972982;28;20423;-82
2023/11/02 07:53:56;;;;;;;0.10;0.10;;;11.10;99.90;;;;;;4989471;28;20097;-83
2023/11/02 07:56:21;;;;;;;2.67;0.30;;;11.10;99.90;;;;;;5005616;28;20022;-82
2023/11/02 07:58:47;;;;;;;2.13;0.20;;;11.80;99.90;;;;;;4973883;28;20557;-82
2023/11/02 08:01:15;;;;;;;1.23;0.35;;;11.00;99.90;;;;;;4989539;28;20035;-82
2023/11/02 08:03:41;;;;;;;0.40;0.20;;;11.10;99.90;;;;;;4954535;28;20949;-81
2023/11/02 08:06:07;;;;;;;3.20;0.63;;;11.20;99.90;;;;;;4985331;28;20026;-81
2023/11/02 08:08:33;;;;;;;0.30;0.20;;;11.20;99.90;;;;;;4972216;28;20037;-82
2023/11/02 08:10:59;;;;;;;0.60;0.32;;;11.20;99.90;;;;;;4988698;28;20050;-82
2023/11/02 08:13:24;;;;;;;1.10;0.28;;;11.20;99.90;;;;;;4985487;28;20116;-83
2023/11/02 08:15:52;;;;;;;1.40;0.63;;;11.20;99.90;;;;;;5004909;28;20049;-82
2023/11/02 08:18:18;;;;;;;0.35;0.30;;;11.20;99.90;;;;;;4970796;28;20098;-82
2023/11/02 08:20:43;;;;;;;0.35;0.28;;;11.80;99.90;;;;;;4963578;28;20117;-82
2023/11/02 08:23:11;;;;;;;1.73;0.17;;;11.30;99.90;;;;;;4988083;28;20069;-82
2023/11/02 08:25:37;;;;;;;0.57;0.35;;;11.30;99.90;;;;;;4970569;28;20109;-82
2023/11/02 08:28:03;;;;;;;0.52;0.38;;;11.30;99.90;;;;;;4996720;28;20078;-82
2023/11/02 08:30:30;;;;;;;0.45;0.15;;;11.40;99.90;;;;;;4987386;28;20089;-82
2023/11/02 08:32:55;;;;;;;1.65;0.40;;;12.30;99.90;;;;;;4985056;28;20031;-83
2023/11/02 08:35:21;;;;;;;2.38;0.60;;;11.40;99.90;;;;;;4986764;28;20056;-82
2023/11/02 08:37:50;;;;;;;3.85;0.43;;;11.50;99.90;;;;;;4974127;28;20547;-82
2023/11/02 08:40:21;;;;;;;0.52;0.50;;;11.20;99.90;;;;;;4984599;28;20034;-82
2023/11/02 08:42:47;;;;;;;6.13;0.40;;;10.80;99.90;;;;;;4982913;28;20580;-81
2023/11/02 08:45:13;;;;;;;1.35;0.32;;;11.60;99.90;;;;;;4986958;28;20058;-82
2023/11/02 08:47:42;;;;;;;3.25;0.60;;;11.50;99.90;;;;;;4973406;28;20037;-82
2023/11/02 08:50:09;;;;;;;2.72;0.52;;;11.50;99.90;;;;;;4992326;28;20034;-82
2023/11/02 08:52:35;;;;;;;2.15;0.70;;;11.00;99.90;;;;;;5003554;28;20038;-82
2023/11/02 08:55:01;;;;;;;1.27;0.25;;;11.50;99.90;;;;;;4994640;28;20033;-82
2023/11/02 08:57:27;;;;;;;1.33;0.43;;;11.60;99.90;;;;;;5001918;28;20053;-82
2023/11/02 08:59:53;;;;;;;0.70;0.28;;;11.60;99.90;;;;;;4987708;28;20034;-82
2023/11/02 09:02:18;;;;;;;3.15;0.40;;;11.60;99.90;;;;;;4970442;28;20026;-81
2023/11/02 09:04:44;;;;;;;0.63;0.38;;;11.60;99.90;;;;;;4987653;28;20083;-82
2023/11/02 09:07:09;;;;;;;4.60;0.40;;;11.60;99.90;;;;;;5001307;28;20486;-82
2023/11/02 09:09:36;;;;;;;0.88;0.30;;;11.20;99.90;;;;;;4970189;28;20026;-82
2023/11/02 09:12:02;;;;;;;1.13;0.40;;;11.60;99.90;;;;;;4971888;28;20555;-81
2023/11/02 09:14:27;;;;;;;1.10;0.30;;;11.60;99.90;;;;;;4972028;28;20069;-82
2023/11/02 09:16:53;;;;;;;5.97;0.50;;;11.70;99.90;;;;;;4974101;28;20022;-82
2023/11/02 09:19:19;;;;;;;1.25;0.30;;;11.70;99.90;;;;;;5001313;28;20041;-82
2023/11/02 09:21:44;;;;;;;1.55;0.50;;;11.80;99.90;;;;;;4991123;28;20035;-82
2023/11/02 09:24:10;;;;;;;1.75;0.60;;;11.80;99.90;;;;;;4993464;28;20033;-82
2023/11/02 09:26:37;;;;;;;4.47;0.57;;;11.90;99.90;;;;;;5007889;28;22035;-82
2023/11/02 09:29:03;;;;;;;1.08;0.32;;;11.80;99.90;;;;;;4976565;28;20049;-82
2023/11/02 09:31:30;;;;;;;0.65;0.40;;;11.90;99.90;;;;;;4978737;28;20049;-82
2023/11/02 09:34:00;;;;;;;2.80;0.47;;;12.10;99.90;;;;;;4970795;28;20110;-82
2023/11/02 09:36:25;;;;;;;3.70;0.80;;;12.00;99.90;;;;;;4976892;28;20041;-82
2023/11/02 09:38:51;;;;;;;0.50;0.20;;;12.00;99.90;;;;;;4988722;28;20050;-81
2023/11/02 09:41:17;;;;;;;3.30;0.30;;;12.10;99.90;;;;;;4990966;28;20045;-81
2023/11/02 09:43:42;;;;;;;2.60;0.40;;;12.20;99.90;;;;;;4975519;28;20037;-82
2023/11/02 09:46:08;;;;;;;4.40;0.68;;;12.30;99.90;;;;;;4995130;28;20466;-82
2023/11/02 09:48:33;;;;;;;1.35;0.47;;;12.20;99.90;;;;;;4972474;28;20036;-82
2023/11/02 09:50:59;;;;;;;0.75;0.38;;;12.40;99.90;;;;;;4979055;28;20511;-82
2023/11/02 09:53:28;;;;;;;2.03;0.45;;;12.40;99.90;;;;;;4980876;28;20712;-81
2023/11/02 09:55:54;;;;;;;1.75;0.30;;;12.50;99.90;;;;;;4969733;28;20514;-82
2023/11/02 09:58:20;;;;;;;0.55;0.30;;;12.50;99.90;;;;;;5001332;28;20046;-81
2023/11/02 10:00:46;;;;;;;0.88;0.47;;;12.50;99.90;;;;;;4971731;28;20034;-81
2023/11/02 10:03:11;;;;;;;2.85;0.52;;;12.60;99.90;;;;;;4985532;28;20043;-81
2023/11/02 10:05:37;;;;;;;1.10;0.50;;;12.60;99.90;;;;;;4991530;28;20092;-81
2023/11/02 10:08:05;;;;;;;2.20;0.93;;;12.50;99.90;;;;;;4970721;28;20042;-81
2023/11/02 10:10:32;;;;;;;3.33;0.75;;;12.70;99.90;;;;;;4985520;28;20081;-81
2023/11/02 10:13:01;;;;;;;0.52;0.25;;;12.80;99.90;;;;;;4953693;28;20038;-81
2023/11/02 10:15:28;;;;;;;6.38;0.70;;;13.10;99.90;;;;;;4983586;28;20418;-81
2023/11/02 10:17:56;;;;;;;1.58;0.50;;;12.90;99.90;;;;;;4982831;28;20046;-81
2023/11/02 10:20:21;;;;;;;2.22;0.40;;;13.00;99.90;;;;;;4982946;28;20034;-81
2023/11/02 10:23:01;;;;;;;1.85;0.55;;;13.30;99.90;;;;;;4985143;28;20089;-81
2023/11/02 10:25:28;;;;;;;2.75;0.40;;;13.10;99.90;;;;;;5001001;28;20133;-81
2023/11/02 10:27:56;;;;;;;1.83;0.40;;;13.20;99.90;;;;;;4999676;28;20045;-81
2023/11/02 10:30:22;;;;;;;1.02;0.50;;;13.20;99.90;;;;;;4984649;28;20042;-82
2023/11/02 10:32:47;;;;;;;2.33;0.35;;;13.30;99.90;;;;;;4970602;28;20066;-81
2023/11/02 10:35:13;;;;;;;2.75;0.63;;;13.30;99.90;;;;;;4999957;28;20294;-81
2023/11/02 10:37:38;;;;;;;1.20;0.40;;;13.40;99.90;;;;;;4987147;28;20372;-81
2023/11/02 10:40:05;;;;;;;4.10;0.65;;;13.40;99.90;;;;;;4998021;28;20031;-81
2023/11/02 10:42:31;;;;;;;1.35;0.47;;;13.50;99.90;;;;;;4988931;28;20426;-82
2023/11/02 10:44:57;;;;;;;3.78;0.63;;;13.40;99.90;;;;;;4988409;28;20092;-81
2023/11/02 10:47:34;;;;;;;1.20;0.50;;;13.60;99.90;;;;;;4988559;28;20026;-81
2023/11/02 10:49:59;;;;;;;0.17;0.15;;;13.60;99.90;;;;;;5021013;28;20030;-81
2023/11/02 10:52:46;;;;;;;0.65;0.13;;;13.60;99.90;;;;;;4972217;28;20054;-81
2023/11/02 10:55:31;;;;;;;2.35;0.52;;;13.60;99.90;;;;;;4968633;28;20037;-81
2023/11/02 10:57:57;;;;;;;1.05;0.38;;;13.60;99.90;;;;;;5004834;28;20503;-81
2023/11/02 11:00:22;;;;;;;0.65;0.20;;;13.70;99.90;;;;;;4984019;28;20058;-80
2023/11/02 11:02:49;;;;;;;1.40;0.40;;;13.80;99.90;;;;;;4970572;28;20158;-79
2023/11/02 11:05:15;;;;;;;4.10;0.73;;;13.70;99.90;;;;;;4988157;28;20049;-82
2023/11/02 11:07:42;;;;;;;0.82;0.32;;;13.80;99.90;;;;;;4981667;28;20037;-80
2023/11/02 11:10:14;;;;;;;2.72;0.52;;;13.90;99.90;;;;;;4996085;28;20152;-78
2023/11/02 11:12:40;;;;;;;1.45;0.40;;;13.90;99.90;;;;;;4984219;28;20041;-80
2023/11/02 11:15:12;;;;;;;2.85;0.40;;;14.00;99.90;;;;;;4279709;28;10000518;-80
2023/11/02 11:17:45;;;;;;;3.47;0.60;;;14.00;99.90;;;;;;4980907;28;20026;-81
2023/11/02 11:20:11;;;;;;;3.33;0.80;;;14.00;99.90;;;;;;4983649;28;20384;-81
2023/11/02 11:22:37;;;;;;;4.95;0.75;;;14.10;99.90;;;;;;4965578;28;20030;-80
2023/11/02 11:25:04;;;;;;;1.05;0.45;;;14.10;99.90;;;;;;4964986;28;20037;-81
2023/11/02 11:27:34;;;;;;;0.82;0.43;;;14.20;99.90;;;;;;4993846;28;20035;-81
2023/11/02 11:30:00;;;;;;;1.58;0.30;;;14.20;99.90;;;;;;4981605;28;20035;-81
2023/11/02 11:32:26;;;;;;;2.92;0.63;;;14.20;99.90;;;;;;4980722;28;20034;-80
2023/11/02 11:35:13;;;;;;;2.17;0.55;;;14.20;99.90;;;;;;5009242;28;20031;-80
2023/11/02 11:37:50;;;;;;;5.35;0.95;;;14.30;99.90;;;;;;4964778;28;20503;-80
2023/11/02 11:40:19;;;;;;;6.90;0.68;;;14.30;99.90;;;;;;4991474;28;20495;-82
2023/11/02 11:43:01;;;;;;;8.15;0.80;;;14.50;99.90;;;;;;4983450;28;20113;-79
2023/11/02 11:45:31;;;;;;;1.38;0.52;;;14.50;99.90;;;;;;4951191;28;20422;-81
2023/11/02 11:48:01;;;;;;;4.18;0.80;;;14.60;99.90;;;;;;5001358;28;20062;-80
2023/11/02 11:50:30;;;;;;;4.90;0.65;;;14.70;99.90;;;;;;4995641;28;20069;-80
2023/11/02 11:53:16;;;;;;;4.15;0.45;;;14.70;99.90;;;;;;4970748;28;20102;-80
2023/11/02 11:55:43;;;;;;;17.80;0.93;;;14.80;99.90;;;;;;5014933;28;20573;-80
2023/11/02 11:58:08;;;;;;;8.30;2.05;;;14.80;99.90;;;;;;4999975;28;20165;-80
2023/11/02 12:00:58;;;;;;;2.67;0.38;;;14.80;99.90;;;;;;4995715;28;20514;-80
2023/11/02 12:03:37;;;;;;;2.70;0.70;;;14.90;99.90;;;;;;5002804;28;20695;-80
2023/11/02 12:06:12;;;;;;;1.67;0.65;;;15.00;99.90;;;;;;5003585;28;20446;-80
2023/11/02 12:08:48;;;;;;;3.45;0.52;;;15.10;99.90;;;;;;4984269;28;20030;-80
2023/11/02 12:11:21;;;;;;;4.60;0.80;;;15.00;99.90;;;;;;4953373;28;20036;-80
2023/11/02 12:13:55;;;;;;;2.42;0.60;;;15.00;99.90;;;;;;5002505;28;20512;-80
2023/11/02 12:16:21;;;;;;;4.57;0.85;;;15.00;99.90;;;;;;4956322;28;20037;-80
2023/11/02 12:18:49;;;;;;;5.70;0.88;;;15.00;99.90;;;;;;4986382;28;20027;-80
2023/11/02 12:21:17;;;;;;;6.57;0.95;;;15.00;99.90;;;;;;4986854;28;20486;-81
2023/11/02 12:23:46;;;;;;;4.30;1.10;;;15.10;99.90;;;;;;4999603;28;20042;-81
2023/11/02 12:26:12;;;;;;;5.28;0.85;;;14.90;99.90;;;;;;5001709;28;20042;-80
2023/11/02 12:28:46;;;;;;;7.90;0.60;;;14.90;99.90;;;;;;4994461;28;20039;-80
2023/11/02 12:31:12;;;;;;;4.70;0.75;;;14.90;99.90;;;;;;4969447;28;20038;-80
2023/11/02 12:33:38;;;;;;;9.27;0.98;;;14.90;99.90;;;;;;4992462;28;20058;-79
2023/11/02 12:36:04;;;;;;;7.70;1.48;;;15.00;99.90;;;;;;4983256;28;20061;-80
2023/11/02 12:38:37;;;;;;;8.38;1.08;;;15.00;99.90;;;;;;5002380;28;20402;-80
2023/11/02 12:41:04;;;;;;;2.00;0.35;;;15.10;99.90;;;;;;4985931;28;20375;-80
2023/11/02 12:43:33;;;;;;;5.45;0.85;;;15.10;99.90;;;;;;4999623;28;20026;-80
2023/11/02 12:46:04;;;;;;;2.83;0.60;;;15.10;99.90;;;;;;4961306;28;20046;-81
2023/11/02 12:48:36;;;;;;;2.88;0.68;;;15.10;99.90;;;;;;4996920;28;20042;-80
2023/11/02 12:51:19;;;;;;;3.97;0.90;;;15.10;99.90;;;;;;4955186;28;20048;-81
2023/11/02 12:53:45;;;;;;;2.45;0.68;;;15.30;99.90;;;;;;4995094;28;20183;-80
2023/11/02 12:56:14;;;;;;;3.25;0.60;;;15.30;99.90;;;;;;4986727;28;20399;-80
2023/11/02 12:58:42;;;;;;;3.80;1.23;;;15.30;99.90;;;;;;5001271;28;20115;-80